Terminal Aerodrome Forecast
Issued by NWS

Home | Current Version | Previous Version | Text Only | Print | Product List | Glossary On
Versions: 1 2 3 4 5 6 7 8 9 10 11 12 13 14 15 16 17 18 19 20 21 22 23 24 25 26 27 28 29 30 31 32 33 34 35 36 37 38 39 40 41 42 43 44
000
FTUS44 KHGX 261007 AAC
TAFIAH
TAF AMD
KIAH 261007Z 2610/2712 18004KT P6SM SCT012
      TEMPO 2610/2614 2SM BR BKN010
     FM261400 14007KT P6SM SCT025
      TEMPO 2614/2617 BKN022
     FM261700 17012KT P6SM SCT035
     FM262100 16012G22KT P6SM BKN035
     FM270300 16010KT P6SM BKN025
     FM270900 17007KT P6SM BKN015=

USA.gov is the U.S. government's official web portal to all federal, state and local government web resources and services.